Hall, Australia
Current Conditions -  °F | °C
As of 3:01 AM on Sunday 26 Oct 2014 (Local Time) from YSCB Reporting Station
Clear Clear  
Wind Chill: 52°   Ceiling: Unl
Heat Index: 52°   Visibility: 0.75mi
Dew Point: 52°   Wind: 0mph
Humidity: 100%   Direction: NA
Pressure: 29.88"   Gusts: NA
Location:  35.17°S, 149.07°E
Report Text: YSCB 251601Z AUTO 00000KT 1200 // NCD 11/11 Q1012
Loading
Personal Weather Stations






























Interactive Weather Map
Tropical Storm Tracking
New forecast layout! Learn more

10-Day Weather Forecast

Advertisements
Track Severe Weather on mobile